Weather at Fayette County Memorial Hospital Heliport

Public forecast

Using degrees Fahrenheit for public forecast. Weather courtesy of forecast.io.

Closest aviation weather report (METAR) to Fayette County Memorial Hospital Heliport

Closest report is Wilmington Airpark, 18.3 nm (34.0 km) WSW. Retrieved 2021/11/29 07:54 UTC (41 minutes ago):

KILN 290754Z AUTO 28006KT 10SM CLR M03/M07 A3010 RMK AO2 SLP215 T10281072

Closest aviation forecast (TAF) to Fayette County Memorial Hospital Heliport

Closest forecast is Wilmington Airpark, 18.3 nm (34.0 km) WSW. Retrieved 2021/11/29 06:24 UTC (2 hours ago):

TAF KILN 290522Z 2906/3006 30007KT P6SM FEW250 FM291200 28005KT P6SM FEW250 FM291600 24008KT P6SM SCT250 FM292200 21008KT P6SM BKN100 FM300500 20009KT P6SM OVC080